CYP312 LCPH-LGAV
Flight info
| Callsign | CYP312 |
|---|---|
| Flight time | N/A |
| Altitude | 36000 |
| Route | GENOS DCT PEDER DCT LUTIG DCT RDS UL995 USINI DCT AKINA DCT RIPLI UL995 VARIX |
| Aircraft | A320/M-SDE3FGHIRWY/LB1 |
Departure
| Time | 2026-04-21 16:37 |
|---|---|
| Airport | Paphos International Airport (LCPH) |
Arrival
| Time | N/A |
|---|---|
| Airport | Athens Eleftherios Venizelos International Airport (LGAV) |
| Time | Latitude | Longitude | Altitude | Speed | Heading |
|---|---|---|---|---|---|
| 2026-04-21 16:36 | 34.72300 | 32.44264 | 2325 ft | 205 kts | 257° |
| 2026-04-21 16:37 | 34.71886 | 32.42496 | 3040 ft | 228 kts | 253° |
| 2026-04-21 16:37 | 34.71390 | 32.40564 | 3541 ft | 250 kts | 253° |
| 2026-04-21 16:37 | 34.70868 | 32.38496 | 4365 ft | 259 kts | 254° |
| 2026-04-21 16:37 | 34.70355 | 32.36379 | 5272 ft | 264 kts | 255° |
| 2026-04-21 16:38 | 34.69851 | 32.34211 | 6180 ft | 268 kts | 256° |
| 2026-04-21 16:38 | 34.69566 | 32.31964 | 7029 ft | 273 kts | 274° |
| 2026-04-21 16:38 | 34.70035 | 32.29738 | 7872 ft | 276 kts | 296° |
| 2026-04-21 16:38 | 34.70906 | 32.27631 | 8770 ft | 279 kts | 297° |
| 2026-04-21 16:39 | 34.71800 | 32.25482 | 9634 ft | 283 kts | 297° |
| 2026-04-21 16:39 | 34.72697 | 32.23325 | 10374 ft | 293 kts | 297° |
| 2026-04-21 16:39 | 34.73657 | 32.21022 | 10649 ft | 317 kts | 297° |
| 2026-04-21 16:39 | 34.74685 | 32.18549 | 10962 ft | 338 kts | 297° |
| 2026-04-21 16:40 | 34.75755 | 32.15967 | 11624 ft | 345 kts | 297° |
| 2026-04-21 16:40 | 34.76832 | 32.13349 | 12394 ft | 348 kts | 297° |
| 2026-04-21 16:40 | 34.77917 | 32.10705 | 13160 ft | 351 kts | 297° |
| 2026-04-21 16:40 | 34.79012 | 32.08042 | 13901 ft | 353 kts | 297° |
| 2026-04-21 16:41 | 34.79743 | 32.06263 | 14376 ft | 355 kts | 297° |
| 2026-04-21 16:41 | 34.81233 | 32.02649 | 15299 ft | 359 kts | 297° |
| 2026-04-21 16:41 | 34.82355 | 31.99921 | 15973 ft | 362 kts | 296° |
| 2026-04-21 16:41 | 34.83485 | 31.97168 | 16632 ft | 365 kts | 296° |
| 2026-04-21 16:42 | 34.84622 | 31.94395 | 17274 ft | 368 kts | 296° |
| 2026-04-21 16:42 | 34.85770 | 31.91596 | 17895 ft | 371 kts | 296° |
| 2026-04-21 16:42 | 34.86926 | 31.88772 | 18516 ft | 374 kts | 296° |
| 2026-04-21 16:42 | 34.87317 | 31.87816 | 18722 ft | 375 kts | 296° |